Time;durP1;ratioP1;P1;durP2;ratioP2;P2;SDS_P1;SDS_P2;PMS_P1;PMS_P2;Temp;Humidity;BMP_temperature;BMP_pressure;BME280_temperature;BME280_humidity;BME280_pressure;Samples;Min_cycle;Max_cycle;Signal;HPM_P1;HPM_P2
2022/09/20 00:02:03;;;;;;;0.30;0.30;;;;;;;11.36;85.23;99539.94;5074688;28;20074;-65
2022/09/20 00:04:33;;;;;;;0.47;0.47;;;;;;;11.40;85.30;99538.19;5074589;28;20048;-64
2022/09/20 00:07:02;;;;;;;0.52;0.52;;;;;;;11.40;85.01;99551.81;5074640;28;20056;-65
2022/09/20 00:09:31;;;;;;;0.95;0.75;;;;;;;11.41;85.30;99542.47;5074511;28;20051;-65
2022/09/20 00:12:00;;;;;;;0.50;0.50;;;;;;;11.33;85.30;99549.31;5074525;28;20040;-64
2022/09/20 00:14:28;;;;;;;0.32;0.32;;;;;;;11.30;85.42;99545.06;5074616;28;20396;-65
2022/09/20 00:16:57;;;;;;;0.20;0.20;;;;;;;11.27;84.86;99546.81;5074444;28;20080;-64
2022/09/20 00:19:26;;;;;;;0.70;0.55;;;;;;;11.25;85.92;99540.88;5074343;28;20124;-65
2022/09/20 00:21:56;;;;;;;0.53;0.50;;;;;;;11.26;85.80;99548.50;5074617;28;20078;-65
2022/09/20 00:24:25;;;;;;;0.73;0.70;;;;;;;11.26;85.88;99547.66;5074265;28;20507;-64
2022/09/20 00:26:54;;;;;;;0.68;0.68;;;;;;;11.23;85.97;99547.66;5074518;28;20062;-65
2022/09/20 00:29:24;;;;;;;4.07;1.30;;;;;;;11.16;85.95;99541.75;5073993;28;20105;-65
2022/09/20 00:31:53;;;;;;;0.70;0.60;;;;;;;11.11;85.96;99545.19;5074173;28;20049;-65
2022/09/20 00:37:02;;;;;;;0.40;0.40;;;;;;;11.11;85.57;99540.09;5074001;28;20514;-65
2022/09/20 00:39:30;;;;;;;0.20;0.20;;;;;;;11.10;85.48;99540.94;5074030;28;20044;-64
2022/09/20 00:41:59;;;;;;;0.40;0.40;;;;;;;11.12;85.36;99544.31;5074219;28;20041;-65
2022/09/20 00:44:59;;;;;;;0.30;0.30;;;;;;;11.14;85.54;99545.16;5074235;28;20032;-65
2022/09/20 00:47:37;;;;;;;0.30;0.30;;;;;;;11.11;85.57;99543.47;5069369;28;20055;-65
2022/09/20 00:50:22;;;;;;;0.55;0.55;;;;;;;11.13;85.26;99546.88;5073881;28;20491;-65
2022/09/20 00:52:56;;;;;;;0.50;0.50;;;;;;;11.15;85.14;99554.53;5073839;28;20098;-64
2022/09/20 00:55:26;;;;;;;0.57;0.57;;;;;;;11.15;85.16;99549.44;5073749;28;20056;-65
2022/09/20 00:57:54;;;;;;;;;;;;;;;11.13;85.21;99551.16;5074483;28;20127;-65
2022/09/20 01:00:23;;;;;;;0.43;0.43;;;;;;;11.09;85.34;99549.44;5073678;28;20371;-65
2022/09/20 01:02:57;;;;;;;0.40;0.40;;;;;;;11.06;85.51;99549.47;5073648;28;20045;-65
2022/09/20 01:05:26;;;;;;;0.32;0.32;;;;;;;11.02;85.72;99548.63;5073204;28;20055;-65
2022/09/20 01:07:57;;;;;;;0.30;0.30;;;;;;;11.03;85.61;99544.38;5073858;28;20040;-65
2022/09/20 01:10:26;;;;;;;0.35;0.35;;;;;;;11.07;85.85;99546.06;5073630;28;20048;-65
2022/09/20 01:12:55;;;;;;;0.40;0.40;;;;;;;11.07;85.79;99536.69;5073597;28;20078;-65
2022/09/20 01:15:26;;;;;;;0.93;0.90;;;;;;;11.06;86.01;99534.16;5073454;28;20090;-65
2022/09/20 01:17:58;;;;;;;0.50;0.50;;;;;;;11.03;86.14;99535.03;5073523;28;20059;-65
2022/09/20 01:20:30;;;;;;;0.80;0.80;;;;;;;11.04;85.80;99535.84;5073467;28;20047;-65
2022/09/20 01:23:17;;;;;;;0.28;0.28;;;;;;;11.02;86.06;99542.66;5073451;28;20041;-65
2022/09/20 01:26:07;;;;;;;0.65;0.45;;;;;;;10.98;85.90;99541.00;5073512;28;20052;-65
2022/09/20 01:28:41;;;;;;;0.40;0.40;;;;;;;10.98;86.11;99548.66;5073092;28;20072;-65
2022/09/20 01:31:15;;;;;;;0.63;0.63;;;;;;;11.01;85.71;99546.09;5073377;28;20044;-65
2022/09/20 01:33:49;;;;;;;0.40;0.40;;;;;;;11.02;85.54;99542.66;5073430;28;20489;-65
2022/09/20 01:36:25;;;;;;;1.67;0.82;;;;;;;10.97;85.70;99532.47;5073364;28;20036;-65
2022/09/20 01:39:04;;;;;;;0.60;0.55;;;;;;;11.00;85.47;99550.34;5073254;28;20055;-65
2022/09/20 01:41:37;;;;;;;0.40;0.40;;;;;;;11.00;85.74;99546.94;5073331;28;20102;-65
2022/09/20 01:44:16;;;;;;;1.45;0.77;;;;;;;10.95;85.38;99536.75;5073547;28;20129;-65
2022/09/20 01:46:50;;;;;;;0.47;0.47;;;;;;;10.92;85.59;99549.53;5073587;28;20098;-65
2022/09/20 01:49:30;;;;;;;0.52;0.52;;;;;;;10.92;85.12;99546.16;5073168;28;20052;-65
2022/09/20 01:52:25;;;;;;;0.95;0.50;;;;;;;10.91;85.25;99541.88;5073508;28;20036;-65
2022/09/20 01:55:23;;;;;;;0.38;0.38;;;;;;;10.93;85.23;99547.81;5073165;28;20053;-65
2022/09/20 01:58:20;;;;;;;0.45;0.45;;;;;;;10.90;85.33;99542.72;5073424;28;20392;-66
2022/09/20 02:01:12;;;;;;;0.30;0.30;;;;;;;10.92;85.36;99536.75;5068008;28;20086;-65
2022/09/20 02:04:07;;;;;;;0.40;0.40;;;;;;;10.96;85.28;99537.59;5072990;28;20131;-64
2022/09/20 02:07:04;;;;;;;0.75;0.45;;;;;;;11.00;85.28;99539.28;5073047;28;20068;-65
2022/09/20 02:10:03;;;;;;;0.90;0.85;;;;;;;11.00;85.27;99539.28;5072938;28;20049;-65
2022/09/20 02:12:52;;;;;;;0.40;0.40;;;;;;;11.01;85.27;99536.75;5072485;28;20569;-65
2022/09/20 02:15:41;;;;;;;0.20;0.20;;;;;;;11.05;85.07;99527.34;5073142;28;20092;-65
2022/09/20 02:18:24;;;;;;;0.40;0.40;;;;;;;11.00;85.06;99532.47;5076966;28;20044;-65
2022/09/20 02:20:59;;;;;;;0.68;0.68;;;;;;;10.97;85.04;99539.28;5076712;28;20508;-65
2022/09/20 02:23:39;;;;;;;0.50;0.50;;;;;;;10.94;85.43;99550.34;5076927;28;20048;-65
2022/09/20 02:26:25;;;;;;;0.50;0.50;;;;;;;10.87;85.07;99542.75;5076524;28;20055;-65
2022/09/20 02:29:06;;;;;;;0.40;0.40;;;;;;;10.83;85.31;99536.81;5076312;28;20107;-65
2022/09/20 02:31:55;;;;;;;0.40;0.40;;;;;;;10.81;85.53;99542.78;5076476;28;20052;-65
2022/09/20 02:34:46;;;;;;;0.68;0.47;;;;;;;10.78;85.79;99541.94;5076848;28;20064;-65
2022/09/20 02:37:47;;;;;;;0.20;0.20;;;;;;;10.77;85.57;99545.31;5076409;28;20041;-65
2022/09/20 02:40:27;;;;;;;0.55;0.55;;;;;;;10.78;85.45;99544.50;5076529;28;20048;-65
2022/09/20 02:43:07;;;;;;;0.30;0.30;;;;;;;10.82;86.08;99544.47;5076598;28;20059;-65
2022/09/20 02:45:42;;;;;;;0.65;0.55;;;;;;;10.86;85.64;99546.16;5076222;28;20098;-65
2022/09/20 02:48:14;;;;;;;0.30;0.30;;;;;;;10.88;85.83;99544.44;5076457;28;20044;-65
2022/09/20 02:50:54;;;;;;;0.38;0.38;;;;;;;10.89;85.42;99535.94;5076116;28;20044;-64
2022/09/20 02:53:38;;;;;;;0.35;0.35;;;;;;;10.95;85.37;99533.34;5076088;28;20048;-65
2022/09/20 02:56:17;;;;;;;0.70;0.70;;;;;;;10.90;85.27;99532.50;5076228;28;20086;-65
2022/09/20 02:58:55;;;;;;;0.35;0.35;;;;;;;10.74;85.09;99537.72;5076330;28;20048;-65
2022/09/20 03:01:36;;;;;;;1.00;0.80;;;;;;;10.65;85.07;99530.06;5076252;28;20135;-65
2022/09/20 03:04:19;;;;;;;0.25;0.25;;;;;;;10.50;84.96;99537.78;5075960;28;20049;-65
2022/09/20 03:07:01;;;;;;;0.20;0.20;;;;;;;10.47;85.33;99542.88;5075836;28;20044;-65
2022/09/20 03:09:38;;;;;;;0.40;0.40;;;;;;;10.47;85.41;99553.09;5075869;28;20549;-65
2022/09/20 03:12:19;;;;;;;0.40;0.40;;;;;;;10.52;85.20;99546.28;5075731;28;20049;-65
2022/09/20 03:15:02;;;;;;;1.02;0.88;;;;;;;10.44;85.51;99547.13;5076503;28;20213;-65
2022/09/20 03:17:41;;;;;;;0.60;0.60;;;;;;;10.35;85.55;99548.00;5075630;28;20040;-65
2022/09/20 03:20:22;;;;;;;0.65;0.63;;;;;;;10.35;85.21;99555.66;5075970;28;20067;-65
2022/09/20 03:23:02;;;;;;;0.73;0.73;;;;;;;10.30;85.24;99554.81;5075566;28;20063;-65
2022/09/20 03:25:51;;;;;;;0.50;0.50;;;;;;;10.21;85.11;99559.94;5076079;28;20052;-65
2022/09/20 03:28:34;;;;;;;0.67;0.67;;;;;;;10.21;85.43;99559.09;5047521;28;20081;-65
2022/09/20 03:31:15;;;;;;;0.40;0.40;;;;;;;10.17;85.55;99552.31;5035718;28;20053;-65
2022/09/20 03:33:52;;;;;;;0.40;0.40;;;;;;;10.08;85.31;99551.41;5035722;28;20049;-65
2022/09/20 03:36:39;;;;;;;0.50;0.50;;;;;;;10.00;84.85;99550.59;5035287;28;20489;-66
2022/09/20 03:39:30;;;;;;;0.73;0.73;;;;;;;9.88;84.70;99554.84;5035265;28;20509;-66
2022/09/20 03:42:07;;;;;;;;;;;;;;;9.88;84.94;99550.59;5035590;28;20059;-66
2022/09/20 03:45:04;;;;;;;0.35;0.35;;;;;;;9.90;85.48;99548.03;5035208;28;19928;-66
2022/09/20 03:47:55;;;;;;;0.20;0.20;;;;;;;9.89;85.39;99547.19;5035469;28;20057;-66
2022/09/20 03:50:49;;;;;;;0.90;0.90;;;;;;;9.90;85.64;99548.03;5035377;28;20068;-66
2022/09/20 03:53:45;;;;;;;0.35;0.35;;;;;;;9.88;85.33;99550.59;5032916;28;20044;-66
2022/09/20 03:56:45;;;;;;;0.85;0.77;;;;;;;9.98;85.20;99554.00;5033757;28;20045;-65
2022/09/20 03:59:31;;;;;;;0.30;0.30;;;;;;;10.01;85.45;99559.06;5035180;28;20132;-65
2022/09/20 04:02:25;;;;;;;0.40;0.40;;;;;;;10.01;85.14;99557.38;5034793;28;20077;-65
2022/09/20 04:04:59;;;;;;;0.28;0.28;;;;;;;10.08;85.49;99558.22;5034793;28;20049;-66
2022/09/20 04:07:34;;;;;;;0.20;0.20;;;;;;;10.14;85.50;99563.34;5034814;28;20048;-65
2022/09/20 04:10:17;;;;;;;0.45;0.43;;;;;;;10.06;85.46;99565.03;5035028;28;20041;-65
2022/09/20 04:13:06;;;;;;;0.73;0.73;;;;;;;10.09;85.81;99567.56;5034935;28;20049;-65
2022/09/20 04:15:46;;;;;;;0.80;0.80;;;;;;;10.07;85.32;99567.59;5034618;28;20046;-65
2022/09/20 04:18:27;;;;;;;0.65;0.60;;;;;;;10.09;85.24;99570.13;5034526;28;20501;-65
2022/09/20 04:21:03;;;;;;;0.50;0.50;;;;;;;10.12;85.95;99570.16;5034463;28;20050;-65
2022/09/20 04:23:46;;;;;;;1.73;1.23;;;;;;;10.13;85.56;99571.84;5034382;28;20103;-65
2022/09/20 04:26:20;;;;;;;0.40;0.40;;;;;;;10.08;86.18;99561.63;5034590;28;20045;-65
2022/09/20 04:28:57;;;;;;;0.60;0.60;;;;;;;10.18;86.42;99579.50;5054479;28;20059;-65
2022/09/20 04:31:36;;;;;;;0.50;0.50;;;;;;;10.18;85.75;99580.34;5074480;28;20098;-65
2022/09/20 04:34:14;;;;;;;0.60;0.60;;;;;;;10.21;85.72;99582.91;5074404;28;20103;-66
2022/09/20 04:36:56;;;;;;;0.30;0.30;;;;;;;10.19;85.88;99587.16;5073975;28;20044;-65
2022/09/20 04:39:41;;;;;;;0.77;0.77;;;;;;;10.09;86.04;99586.28;5073813;28;20545;-65
2022/09/20 04:42:33;;;;;;;0.40;0.40;;;;;;;10.13;86.00;99581.19;5074304;28;20063;-65
2022/09/20 04:45:37;;;;;;;0.30;0.30;;;;;;;10.16;86.34;99591.41;5073838;28;20093;-65
2022/09/20 04:48:27;;;;;;;0.35;0.35;;;;;;;10.14;86.78;99593.97;5073865;28;20123;-66
2022/09/20 04:51:06;;;;;;;;;;;;;;;10.20;86.40;99593.94;5074305;28;20041;-66
2022/09/20 04:53:51;;;;;;;0.30;0.30;;;;;;;10.18;86.75;99595.66;5073822;28;19925;-65
2022/09/20 04:56:39;;;;;;;0.22;0.22;;;;;;;10.20;86.61;99590.56;5073987;28;20048;-65
2022/09/20 04:59:10;;;;;;;0.50;0.50;;;;;;;10.31;87.14;99601.59;5073739;28;20052;-65
2022/09/20 05:02:02;;;;;;;0.60;0.60;;;;;;;10.33;87.22;99594.78;5073695;28;20608;-65
2022/09/20 05:04:53;;;;;;;1.35;1.05;;;;;;;10.39;86.96;99595.63;5073571;28;20052;-65
2022/09/20 05:08:07;;;;;;;0.57;0.57;;;;;;;10.44;86.99;99588.81;5073610;28;20049;-65
2022/09/20 05:11:05;;;;;;;0.30;0.30;;;;;;;10.47;86.89;99591.38;5073600;28;20119;-65
2022/09/20 05:13:52;;;;;;;0.68;0.68;;;;;;;10.47;87.24;99593.91;5073608;28;20401;-65
2022/09/20 05:16:30;;;;;;;2.88;1.67;;;;;;;10.57;87.29;99600.72;5073748;28;20067;-66
2022/09/20 05:19:20;;;;;;;0.60;0.60;;;;;;;10.67;87.57;99596.44;5073491;28;20062;-65
2022/09/20 05:22:24;;;;;;;1.30;1.20;;;;;;;10.76;87.39;99611.72;5073507;28;20131;-65
2022/09/20 05:25:23;;;;;;;0.40;0.40;;;;;;;10.80;87.18;99599.81;5074059;28;20041;-65
2022/09/20 05:27:57;;;;;;;2.78;1.13;;;;;;;10.91;86.97;99605.72;5073464;28;20400;-65
2022/09/20 05:30:36;;;;;;;0.43;0.43;;;;;;;10.99;86.86;99614.22;5073387;28;20098;-66
2022/09/20 05:33:19;;;;;;;0.60;0.60;;;;;;;11.05;87.02;99611.63;5073705;28;20119;-65
2022/09/20 05:36:02;;;;;;;1.10;1.00;;;;;;;11.10;86.54;99615.00;5073599;28;20076;-66
2022/09/20 05:38:44;;;;;;;0.40;0.40;;;;;;;11.15;86.66;99605.63;5073251;28;20051;-66
2022/09/20 05:41:23;;;;;;;1.48;0.52;;;;;;;11.16;86.44;99605.59;5073228;28;20060;-65
2022/09/20 05:44:04;;;;;;;0.73;0.73;;;;;;;11.21;86.38;99608.13;5073534;28;20044;-66
2022/09/20 05:46:45;;;;;;;0.45;0.45;;;;;;;11.23;86.04;99609.81;5073464;28;20072;-64
2022/09/20 05:49:24;;;;;;;0.57;0.57;;;;;;;11.28;86.10;99607.25;5073515;28;20048;-65
2022/09/20 05:52:11;;;;;;;2.58;0.95;;;;;;;11.35;86.19;99614.88;5077459;28;20052;-65
2022/09/20 05:55:02;;;;;;;0.40;0.40;;;;;;;11.40;85.92;99623.38;5077207;28;20063;-65
2022/09/20 05:57:55;;;;;;;0.95;0.60;;;;;;;11.42;85.52;99620.84;5076984;28;20052;-65
2022/09/20 06:00:30;;;;;;;1.15;0.75;;;;;;;11.40;85.17;99618.25;5077095;28;20041;-66
2022/09/20 06:03:15;;;;;;;1.73;1.27;;;;;;;11.46;85.15;99617.41;5077353;28;20049;-65
2022/09/20 06:05:55;;;;;;;0.70;0.70;;;;;;;11.49;85.39;99612.28;5077216;28;20118;-65
2022/09/20 06:08:49;;;;;;;2.50;1.15;;;;;;;11.52;85.45;99612.22;5076916;28;20040;-66
2022/09/20 06:11:33;;;;;;;0.30;0.30;;;;;;;11.52;85.08;99616.53;5076826;28;20048;-66
2022/09/20 06:14:17;;;;;;;0.45;0.45;;;;;;;11.48;84.81;99620.78;5077106;28;20045;-66
2022/09/20 06:16:59;;;;;;;0.47;0.47;;;;;;;11.35;84.66;99621.69;5076953;28;20564;-66
2022/09/20 06:19:36;;;;;;;3.85;0.88;;;;;;;11.29;84.21;99621.75;5076678;28;20110;-65
2022/09/20 06:22:16;;;;;;;0.40;0.40;;;;;;;11.16;83.91;99627.75;5076725;28;20499;-65
2022/09/20 06:24:50;;;;;;;0.52;0.52;;;;;;;11.06;83.96;99643.97;5076896;28;20045;-66
2022/09/20 06:27:24;;;;;;;1.38;1.15;;;;;;;11.11;84.33;99640.53;5075961;28;20055;-65
2022/09/20 06:30:03;;;;;;;0.43;0.43;;;;;;;11.11;84.50;99644.81;5072325;28;20044;-65
2022/09/20 06:32:33;;;;;;;;;;;;;;;11.07;84.69;99646.50;5076965;28;20059;-65
2022/09/20 06:35:04;;;;;;;0.50;0.50;;;;;;;11.13;84.89;99648.22;5076438;28;19920;-65
2022/09/20 06:43:13;;;;;;;0.47;0.47;;;;;;;11.55;84.59;99642.91;5076173;28;20045;-65
2022/09/20 06:45:43;;;;;;;0.60;0.60;;;;;;;11.57;84.65;99636.06;5076102;28;20131;-65
2022/09/20 06:48:14;;;;;;;0.50;0.50;;;;;;;11.64;84.27;99642.84;5076207;28;20557;-66
2022/09/20 06:50:44;;;;;;;0.50;0.50;;;;;;;11.73;84.14;99645.41;5071804;28;20043;-64
2022/09/20 06:53:18;;;;;;;0.35;0.35;;;;;;;11.82;83.83;99647.91;5062578;28;20052;-65
2022/09/20 06:55:47;;;;;;;0.40;0.40;;;;;;;11.88;83.75;99647.84;5066149;28;20438;-64
2022/09/20 06:58:15;;;;;;;0.50;0.50;;;;;;;11.89;83.50;99647.00;5076204;28;20029;-65
2022/09/20 07:00:46;;;;;;;0.50;0.50;;;;;;;11.91;83.31;99642.72;5067794;28;20037;-65
2022/09/20 07:03:15;;;;;;;0.63;0.63;;;;;;;11.95;83.30;99651.19;5057868;28;20045;-64
2022/09/20 07:05:43;;;;;;;0.68;0.68;;;;;;;12.00;83.03;99641.78;5055761;28;20056;-64
2022/09/20 07:08:12;;;;;;;0.60;0.60;;;;;;;12.03;82.85;99654.56;5067878;28;20048;-66
2022/09/20 07:10:42;;;;;;;0.70;0.70;;;;;;;12.03;82.55;99657.97;5075166;28;20037;-65
2022/09/20 07:13:12;;;;;;;1.63;1.52;;;;;;;12.08;82.50;99661.34;5073983;28;20048;-65
2022/09/20 07:15:41;;;;;;;0.50;0.50;;;;;;;12.11;82.69;99655.38;5075344;28;20040;-66
2022/09/20 07:18:11;;;;;;;1.02;0.68;;;;;;;12.17;82.63;99667.25;5075448;28;20041;-65
2022/09/20 07:20:40;;;;;;;1.10;0.70;;;;;;;12.22;82.83;99668.91;5073459;28;20051;-66
2022/09/20 07:23:09;;;;;;;0.38;0.38;;;;;;;12.21;82.48;99674.91;5074891;28;20033;-66
2022/09/20 07:25:38;;;;;;;1.58;0.55;;;;;;;12.18;82.19;99682.59;5070346;28;20492;-66
2022/09/20 07:28:06;;;;;;;0.90;0.90;;;;;;;12.21;82.18;99686.84;5069120;28;20072;-65
2022/09/20 07:30:35;;;;;;;0.55;0.55;;;;;;;12.18;81.90;99686.88;5073501;28;20041;-66
2022/09/20 07:33:03;;;;;;;0.30;0.30;;;;;;;12.19;81.91;99686.03;5068566;28;20132;-66
2022/09/20 07:35:34;;;;;;;0.35;0.35;;;;;;;12.22;81.97;99689.38;5074535;28;20214;-66
2022/09/20 07:38:03;;;;;;;0.65;0.50;;;;;;;12.22;82.04;99691.09;5075068;28;20045;-66
2022/09/20 07:40:31;;;;;;;0.40;0.40;;;;;;;12.22;81.88;99694.50;5074857;28;20040;-65
2022/09/20 07:43:00;;;;;;;0.55;0.55;;;;;;;12.18;81.71;99694.53;5074348;28;20040;-65
2022/09/20 07:45:29;;;;;;;0.47;0.47;;;;;;;12.18;81.66;99702.22;5074770;28;20052;-65
2022/09/20 07:47:58;;;;;;;0.43;0.43;;;;;;;12.16;81.43;99691.16;5075209;28;20136;-65
2022/09/20 07:50:27;;;;;;;0.40;0.40;;;;;;;12.16;81.31;99698.81;5074882;28;20075;-66
2022/09/20 07:52:57;;;;;;;0.60;0.47;;;;;;;12.12;81.05;99702.28;5074748;28;20127;-66
2022/09/20 07:55:26;;;;;;;0.43;0.43;;;;;;;12.07;81.23;99700.56;5074647;28;20052;-65
2022/09/20 07:57:56;;;;;;;0.70;0.60;;;;;;;12.07;81.08;99709.94;5073676;28;20071;-66
2022/09/20 08:00:25;;;;;;;;;;;;;;;12.13;80.97;99714.19;5071065;28;20145;-65
2022/09/20 08:03:00;;;;;;;1.13;1.02;;;;;;;12.18;80.54;99709.91;5074481;28;19920;-66
2022/09/20 08:05:29;;;;;;;0.63;0.63;;;;;;;12.28;80.65;99711.53;5074635;28;20058;-65
2022/09/20 08:07:59;;;;;;;;;;;;;;;12.39;80.58;99712.28;5072832;28;20041;-66
2022/09/20 08:10:28;;;;;;;2.20;0.85;;;;;;;12.44;80.86;99711.41;5062087;28;20306;-65
2022/09/20 08:12:59;;;;;;;0.40;0.40;;;;;;;12.51;80.81;99709.63;5045560;28;20136;-66
2022/09/20 08:15:48;;;;;;;0.40;0.40;;;;;;;12.59;80.91;99720.69;5054352;28;20037;-65
2022/09/20 08:18:16;;;;;;;0.50;0.50;;;;;;;12.62;80.76;99716.38;5054247;28;20120;-66
2022/09/20 08:20:45;;;;;;;0.40;0.40;;;;;;;12.71;80.80;99720.56;5054694;28;20068;-66
2022/09/20 08:23:15;;;;;;;0.50;0.50;;;;;;;12.80;80.32;99715.38;5054564;28;20047;-66
2022/09/20 08:25:51;;;;;;;1.00;0.73;;;;;;;12.77;79.66;99712.81;5066741;28;20044;-66
2022/09/20 08:28:20;;;;;;;0.90;0.82;;;;;;;12.73;79.71;99713.72;5074534;28;20395;-66
2022/09/20 08:30:48;;;;;;;0.65;0.65;;;;;;;12.71;79.52;99711.19;5074435;28;20032;-66
2022/09/20 08:33:17;;;;;;;0.77;0.77;;;;;;;12.70;79.09;99713.75;5074453;28;20455;-66
2022/09/20 08:35:49;;;;;;;0.68;0.68;;;;;;;12.67;79.09;99698.41;5074037;28;20041;-66
2022/09/20 08:38:19;;;;;;;0.32;0.32;;;;;;;12.77;78.67;99711.13;5074335;28;20043;-66
2022/09/20 08:41:15;;;;;;;0.38;0.38;;;;;;;12.80;78.29;99715.38;5073857;28;20395;-66
2022/09/20 08:43:51;;;;;;;0.40;0.40;;;;;;;12.84;78.14;99714.47;5067879;28;20075;-67
2022/09/20 08:46:26;;;;;;;0.52;0.52;;;;;;;12.95;78.02;99714.38;5066135;28;20510;-66
2022/09/20 08:48:55;;;;;;;1.05;0.95;;;;;;;13.02;77.84;99722.00;5074199;28;20108;-66
2022/09/20 08:51:29;;;;;;;1.05;0.70;;;;;;;12.99;77.39;99722.00;5073762;28;20045;-66
2022/09/20 08:54:00;;;;;;;0.20;0.20;;;;;;;13.00;76.85;99723.72;5074172;28;20052;-66
2022/09/20 08:56:35;;;;;;;5.32;1.05;;;;;;;13.10;76.30;99725.34;5073260;28;20054;-66
2022/09/20 08:59:06;;;;;;;0.60;0.60;;;;;;;13.16;76.06;99730.41;5073940;28;20044;-65
2022/09/20 09:01:36;;;;;;;0.57;0.57;;;;;;;13.24;75.63;99723.50;5073939;28;20052;-65
2022/09/20 09:04:12;;;;;;;;;;;;;;;13.32;75.50;99721.69;5072845;28;20036;-67
2022/09/20 09:06:42;;;;;;;0.35;0.30;;;;;;;13.42;75.59;99725.00;5072956;28;19924;-67
2022/09/20 09:09:18;;;;;;;0.40;0.40;;;;;;;13.50;76.03;99719.78;5072107;28;20071;-66
2022/09/20 09:11:48;;;;;;;0.52;0.50;;;;;;;13.57;76.18;99716.28;5053511;28;20045;-67
2022/09/20 09:17:03;;;;;;;0.50;0.50;;;;;;;14.14;75.76;99710.34;5053768;28;20053;-66
2022/09/20 09:19:42;;;;;;;0.40;0.40;;;;;;;14.26;74.79;99705.03;5065680;28;20057;-65
2022/09/20 09:22:16;;;;;;;1.38;1.27;;;;;;;14.31;74.25;99713.56;5053661;28;20068;-67
2022/09/20 09:25:05;;;;;;;0.40;0.40;;;;;;;14.50;74.42;99714.09;5054002;28;20076;-67
2022/09/20 09:27:35;;;;;;;0.73;0.45;;;;;;;14.75;73.80;99708.56;5065061;28;20060;-67
2022/09/20 09:30:19;;;;;;;;;;;;;;;15.05;73.11;99704.59;5060158;28;20526;-67
2022/09/20 09:32:47;;;;;;;0.50;0.40;;;;;;;15.13;71.87;99707.00;5053269;28;19927;-67
2022/09/20 09:35:31;;;;;;;0.40;0.40;;;;;;;15.20;71.41;99704.31;5053217;28;20051;-67
2022/09/20 09:38:02;;;;;;;0.60;0.60;;;;;;;15.14;70.65;99704.41;5051233;28;20044;-67
2022/09/20 09:40:33;;;;;;;0.55;0.55;;;;;;;15.13;70.35;99707.00;5053112;28;20045;-66
2022/09/20 09:43:03;;;;;;;1.35;1.25;;;;;;;15.11;70.95;99708.78;5053225;28;20055;-67
2022/09/20 09:45:34;;;;;;;0.50;0.50;;;;;;;15.10;71.04;99709.63;5053521;28;20045;-67
2022/09/20 09:48:18;;;;;;;0.50;0.50;;;;;;;15.07;70.53;99709.72;5053112;28;20049;-66
2022/09/20 09:50:47;;;;;;;0.38;0.38;;;;;;;15.03;69.77;99705.47;5061699;28;20053;-67
2022/09/20 09:53:19;;;;;;;1.65;1.50;;;;;;;14.97;69.36;99705.59;5072059;28;20131;-66
2022/09/20 09:56:11;;;;;;;0.60;0.60;;;;;;;14.94;69.66;99705.66;5072684;28;20400;-66
2022/09/20 09:58:57;;;;;;;0.60;0.60;;;;;;;14.90;69.73;99696.31;5070974;28;20137;-66
2022/09/20 10:01:37;;;;;;;0.40;0.40;;;;;;;14.85;70.36;99705.81;5071079;28;20483;-66
2022/09/20 10:04:16;;;;;;;0.70;0.68;;;;;;;14.74;69.84;99700.84;5070051;28;20160;-66
2022/09/20 10:06:55;;;;;;;0.70;0.70;;;;;;;14.75;70.16;99693.16;5070413;28;20108;-66
2022/09/20 10:09:34;;;;;;;0.73;0.73;;;;;;;14.71;71.21;99693.19;5070736;28;20400;-66
2022/09/20 10:12:21;;;;;;;0.30;0.30;;;;;;;14.69;71.66;99688.09;5063300;28;20124;-67
2022/09/20 10:15:05;;;;;;;0.55;0.55;;;;;;;14.72;71.87;99695.75;5062353;28;20056;-66
2022/09/20 10:17:51;;;;;;;1.38;0.98;;;;;;;14.75;72.02;99695.72;5071866;28;20040;-66
2022/09/20 10:20:34;;;;;;;0.60;0.57;;;;;;;14.71;72.42;99682.91;5052829;28;20381;-66
2022/09/20 10:23:17;;;;;;;0.77;0.77;;;;;;;14.71;72.33;99688.06;5052814;28;20076;-66
2022/09/20 10:26:21;;;;;;;2.13;1.10;;;;;;;14.74;72.91;99691.44;5052803;28;20045;-66
2022/09/20 10:29:07;;;;;;;1.77;0.90;;;;;;;14.81;73.14;99688.75;5052761;28;20056;-66
2022/09/20 10:31:47;;;;;;;0.65;0.65;;;;;;;14.83;73.31;99694.72;5053051;28;20045;-66
2022/09/20 10:34:38;;;;;;;3.20;1.30;;;;;;;14.77;72.45;99690.53;5052762;28;20053;-67
2022/09/20 10:37:15;;;;;;;0.85;0.75;;;;;;;14.80;72.43;99697.34;5051772;28;20051;-67
2022/09/20 10:39:54;;;;;;;1.13;0.73;;;;;;;14.88;72.15;99696.31;5056583;28;20041;-66
2022/09/20 10:45:29;;;;;;;3.55;1.85;;;;;;;15.03;72.28;99700.34;5056191;28;20053;-66
2022/09/20 10:48:26;;;;;;;0.80;0.70;;;;;;;15.12;72.21;99692.44;5056259;28;20037;-66
2022/09/20 10:51:00;;;;;;;0.57;0.57;;;;;;;15.10;72.04;99696.78;5056171;28;20047;-67
2022/09/20 10:53:37;;;;;;;0.60;0.60;;;;;;;15.19;71.62;99686.31;5058281;28;20071;-67
2022/09/20 10:56:22;;;;;;;0.47;0.47;;;;;;;15.21;71.42;99689.72;5076069;28;20050;-66
2022/09/20 10:59:08;;;;;;;0.40;0.40;;;;;;;15.29;70.52;99693.84;5076303;28;20095;-66
2022/09/20 11:01:49;;;;;;;0.40;0.40;;;;;;;15.37;69.48;99686.81;5075906;28;20051;-66
2022/09/20 11:04:35;;;;;;;0.40;0.40;;;;;;;15.43;69.49;99690.97;5075842;28;20503;-67
2022/09/20 11:07:15;;;;;;;0.73;0.73;;;;;;;15.58;69.49;99684.72;5075787;28;20053;-66
2022/09/20 11:09:49;;;;;;;1.00;0.80;;;;;;;15.67;69.13;99687.94;5075839;28;20048;-67
2022/09/20 11:12:27;;;;;;;0.70;0.70;;;;;;;15.80;68.73;99676.50;5075695;28;20071;-66
2022/09/20 11:15:03;;;;;;;0.47;0.47;;;;;;;16.02;68.31;99674.31;5074940;28;20045;-66
2022/09/20 11:17:38;;;;;;;4.07;1.15;;;;;;;16.19;67.01;99674.75;5075508;28;20044;-66
2022/09/20 11:20:17;;;;;;;0.60;0.60;;;;;;;16.28;67.74;99668.53;5075500;28;20053;-66
2022/09/20 11:22:50;;;;;;;0.40;0.40;;;;;;;16.14;66.89;99670.59;5072872;28;20047;-66
2022/09/20 11:25:23;;;;;;;0.60;0.60;;;;;;;16.12;66.67;99672.38;5074038;28;20040;-66
2022/09/20 11:28:02;;;;;;;0.50;0.50;;;;;;;16.46;66.06;99668.09;5075186;28;20484;-67
2022/09/20 11:30:38;;;;;;;0.50;0.50;;;;;;;16.79;65.41;99663.84;5075256;28;20512;-66
2022/09/20 11:33:18;;;;;;;0.52;0.50;;;;;;;17.11;65.19;99662.09;5075701;28;20072;-66
2022/09/20 11:35:49;;;;;;;0.30;0.30;;;;;;;17.16;63.78;99652.50;5075335;28;20052;-66
2022/09/20 11:38:26;;;;;;;0.40;0.40;;;;;;;17.53;63.64;99656.63;5075238;28;20041;-66
2022/09/20 11:40:59;;;;;;;0.57;0.57;;;;;;;17.62;62.86;99646.03;5075187;28;20072;-66
2022/09/20 11:43:29;;;;;;;0.63;0.60;;;;;;;17.41;62.81;99653.50;5075400;28;20048;-66
2022/09/20 11:46:03;;;;;;;1.30;0.68;;;;;;;17.17;62.04;99654.19;5072974;28;20072;-66
2022/09/20 11:48:37;;;;;;;0.40;0.40;;;;;;;16.96;62.18;99657.38;5073659;28;20040;-66
2022/09/20 11:51:28;;;;;;;0.73;0.60;;;;;;;17.12;63.03;99656.06;5073044;28;20066;-66
2022/09/20 11:54:17;;;;;;;0.63;0.60;;;;;;;17.07;62.44;99660.50;5063377;28;20503;-66
2022/09/20 11:56:51;;;;;;;0.40;0.40;;;;;;;17.51;63.16;99648.91;5054826;28;20080;-66
2022/09/20 11:59:30;;;;;;;0.98;0.75;;;;;;;17.56;62.07;99644.50;5054800;28;20043;-66
2022/09/20 12:02:01;;;;;;;0.60;0.60;;;;;;;17.35;60.86;99653.66;5054819;28;20045;-66
2022/09/20 12:04:36;;;;;;;0.50;0.50;;;;;;;17.12;61.00;99647.47;5054696;28;20053;-66
2022/09/20 12:07:16;;;;;;;0.60;0.60;;;;;;;16.74;60.79;99648.50;5054799;28;20076;-66
2022/09/20 12:09:51;;;;;;;1.08;0.80;;;;;;;16.40;61.73;99648.47;5054566;28;20049;-66
2022/09/20 12:12:32;;;;;;;0.30;0.30;;;;;;;16.03;62.63;99656.22;5054885;28;20099;-66
2022/09/20 12:15:04;;;;;;;0.32;0.32;;;;;;;15.92;63.34;99647.06;5054857;28;20041;-65
2022/09/20 12:17:55;;;;;;;0.43;0.43;;;;;;;15.79;63.91;99651.63;5054356;28;20135;-65
2022/09/20 12:20:45;;;;;;;0.40;0.40;;;;;;;15.55;64.91;99644.44;5054630;28;20400;-65
2022/09/20 12:23:36;;;;;;;0.50;0.50;;;;;;;15.43;65.07;99647.25;5061191;28;20500;-65
2022/09/20 12:26:09;;;;;;;0.50;0.50;;;;;;;15.38;65.20;99615.63;5074292;28;20056;-65
2022/09/20 12:28:40;;;;;;;0.60;0.60;;;;;;;15.46;65.04;99647.22;5073994;28;20491;-66
2022/09/20 12:31:31;;;;;;;0.40;0.40;;;;;;;15.51;64.90;99641.97;5073104;28;20132;-66
2022/09/20 12:34:02;;;;;;;0.60;0.60;;;;;;;15.63;65.06;99652.88;5067361;28;20494;-66
2022/09/20 12:36:34;;;;;;;2.03;0.85;;;;;;;16.05;64.50;99645.91;5061068;28;20138;-66
2022/09/20 12:39:06;;;;;;;0.40;0.40;;;;;;;16.49;63.91;99634.50;5053949;28;20064;-66
2022/09/20 12:41:49;;;;;;;1.05;0.93;;;;;;;16.66;63.10;99640.13;5053943;28;20051;-65
2022/09/20 12:44:29;;;;;;;0.30;0.30;;;;;;;16.78;62.88;99639.78;5053924;28;20057;-65